sensor_id;sensor_type;location;lat;lon;timestamp;P1;durP1;ratioP1;P2;durP2;ratioP2
10309;SDS011;5200;43.236;27.986;2023-09-08T00:01:17;3.13;;;2.67;;
10309;SDS011;5200;43.236;27.986;2023-09-08T00:03:44;4.90;;;2.85;;
10309;SDS011;5200;43.236;27.986;2023-09-08T00:06:11;3.45;;;2.90;;
10309;SDS011;5200;43.236;27.986;2023-09-08T00:08:38;2.92;;;2.45;;
10309;SDS011;5200;43.236;27.986;2023-09-08T00:11:05;3.03;;;2.35;;
10309;SDS011;5200;43.236;27.986;2023-09-08T00:13:32;4.85;;;2.85;;
10309;SDS011;5200;43.236;27.986;2023-09-08T00:16:00;3.35;;;2.88;;
10309;SDS011;5200;43.236;27.986;2023-09-08T00:18:27;3.20;;;2.90;;
10309;SDS011;5200;43.236;27.986;2023-09-08T00:20:54;3.60;;;3.05;;
10309;SDS011;5200;43.236;27.986;2023-09-08T00:23:21;4.45;;;3.45;;
10309;SDS011;5200;43.236;27.986;2023-09-08T00:25:48;4.45;;;2.95;;
10309;SDS011;5200;43.236;27.986;2023-09-08T00:28:15;3.42;;;2.90;;
10309;SDS011;5200;43.236;27.986;2023-09-08T00:30:42;5.18;;;2.75;;
10309;SDS011;5200;43.236;27.986;2023-09-08T00:33:10;7.22;;;2.75;;
10309;SDS011;5200;43.236;27.986;2023-09-08T00:35:38;3.63;;;2.88;;
10309;SDS011;5200;43.236;27.986;2023-09-08T00:38:05;7.25;;;2.88;;
10309;SDS011;5200;43.236;27.986;2023-09-08T00:40:32;3.20;;;2.90;;
10309;SDS011;5200;43.236;27.986;2023-09-08T00:42:59;4.13;;;2.88;;
10309;SDS011;5200;43.236;27.986;2023-09-08T00:45:26;4.05;;;2.88;;
10309;SDS011;5200;43.236;27.986;2023-09-08T00:47:55;11.32;;;2.90;;
10309;SDS011;5200;43.236;27.986;2023-09-08T00:50:23;3.05;;;2.60;;
10309;SDS011;5200;43.236;27.986;2023-09-08T00:52:50;6.43;;;2.70;;
10309;SDS011;5200;43.236;27.986;2023-09-08T00:55:17;3.00;;;2.70;;
10309;SDS011;5200;43.236;27.986;2023-09-08T00:57:44;2.92;;;2.72;;
10309;SDS011;5200;43.236;27.986;2023-09-08T01:00:18;4.72;;;3.00;;
10309;SDS011;5200;43.236;27.986;2023-09-08T01:02:45;4.13;;;2.25;;
10309;SDS011;5200;43.236;27.986;2023-09-08T01:05:12;3.88;;;3.03;;
10309;SDS011;5200;43.236;27.986;2023-09-08T01:07:41;4.43;;;2.53;;
10309;SDS011;5200;43.236;27.986;2023-09-08T01:10:09;5.63;;;2.75;;
10309;SDS011;5200;43.236;27.986;2023-09-08T01:12:36;2.83;;;2.60;;
10309;SDS011;5200;43.236;27.986;2023-09-08T01:15:03;3.10;;;2.60;;
10309;SDS011;5200;43.236;27.986;2023-09-08T01:17:31;3.60;;;2.75;;
10309;SDS011;5200;43.236;27.986;2023-09-08T01:19:59;2.65;;;2.45;;
10309;SDS011;5200;43.236;27.986;2023-09-08T01:22:35;4.30;;;2.70;;
10309;SDS011;5200;43.236;27.986;2023-09-08T01:25:27;5.15;;;2.72;;
10309;SDS011;5200;43.236;27.986;2023-09-08T01:27:57;2.75;;;2.55;;
10309;SDS011;5200;43.236;27.986;2023-09-08T01:30:27;3.35;;;2.65;;
10309;SDS011;5200;43.236;27.986;2023-09-08T01:32:57;2.88;;;2.50;;
10309;SDS011;5200;43.236;27.986;2023-09-08T01:35:25;2.50;;;2.30;;
10309;SDS011;5200;43.236;27.986;2023-09-08T01:37:53;2.63;;;2.42;;
10309;SDS011;5200;43.236;27.986;2023-09-08T01:40:20;6.15;;;2.83;;
10309;SDS011;5200;43.236;27.986;2023-09-08T01:42:48;4.18;;;3.05;;
10309;SDS011;5200;43.236;27.986;2023-09-08T01:45:16;2.70;;;2.40;;
10309;SDS011;5200;43.236;27.986;2023-09-08T01:47:43;2.72;;;2.50;;
10309;SDS011;5200;43.236;27.986;2023-09-08T01:50:10;6.00;;;2.35;;
10309;SDS011;5200;43.236;27.986;2023-09-08T01:52:36;6.05;;;2.95;;
10309;SDS011;5200;43.236;27.986;2023-09-08T01:55:05;3.28;;;2.50;;
10309;SDS011;5200;43.236;27.986;2023-09-08T01:57:32;7.20;;;2.47;;
10309;SDS011;5200;43.236;27.986;2023-09-08T02:00:00;4.93;;;2.70;;
10309;SDS011;5200;43.236;27.986;2023-09-08T02:02:27;3.10;;;2.65;;
10309;SDS011;5200;43.236;27.986;2023-09-08T02:04:54;4.13;;;3.00;;
10309;SDS011;5200;43.236;27.986;2023-09-08T02:07:21;7.20;;;2.60;;
10309;SDS011;5200;43.236;27.986;2023-09-08T02:09:48;4.00;;;2.58;;
10309;SDS011;5200;43.236;27.986;2023-09-08T02:12:15;4.55;;;2.88;;
10309;SDS011;5200;43.236;27.986;2023-09-08T02:14:42;3.65;;;2.50;;
10309;SDS011;5200;43.236;27.986;2023-09-08T02:17:10;2.80;;;2.60;;
10309;SDS011;5200;43.236;27.986;2023-09-08T02:19:37;3.10;;;2.60;;
10309;SDS011;5200;43.236;27.986;2023-09-08T02:22:04;3.75;;;2.60;;
10309;SDS011;5200;43.236;27.986;2023-09-08T02:24:31;2.60;;;2.40;;
10309;SDS011;5200;43.236;27.986;2023-09-08T02:26:57;2.60;;;2.40;;
10309;SDS011;5200;43.236;27.986;2023-09-08T02:29:24;3.47;;;2.67;;
10309;SDS011;5200;43.236;27.986;2023-09-08T02:31:51;5.13;;;3.00;;
10309;SDS011;5200;43.236;27.986;2023-09-08T02:34:20;5.47;;;2.50;;
10309;SDS011;5200;43.236;27.986;2023-09-08T02:36:47;5.35;;;2.60;;
10309;SDS011;5200;43.236;27.986;2023-09-08T02:39:16;3.20;;;2.85;;
10309;SDS011;5200;43.236;27.986;2023-09-08T02:41:43;4.82;;;2.65;;
10309;SDS011;5200;43.236;27.986;2023-09-08T02:44:09;6.47;;;2.58;;
10309;SDS011;5200;43.236;27.986;2023-09-08T02:46:36;2.78;;;2.50;;
10309;SDS011;5200;43.236;27.986;2023-09-08T02:49:03;8.25;;;2.42;;
10309;SDS011;5200;43.236;27.986;2023-09-08T02:51:31;3.92;;;2.70;;
10309;SDS011;5200;43.236;27.986;2023-09-08T02:53:58;2.80;;;2.60;;
10309;SDS011;5200;43.236;27.986;2023-09-08T02:56:25;4.95;;;2.58;;
10309;SDS011;5200;43.236;27.986;2023-09-08T02:58:52;3.22;;;2.40;;
10309;SDS011;5200;43.236;27.986;2023-09-08T03:01:18;3.08;;;2.67;;
10309;SDS011;5200;43.236;27.986;2023-09-08T03:03:46;4.72;;;2.60;;
10309;SDS011;5200;43.236;27.986;2023-09-08T03:06:13;2.60;;;2.20;;
10309;SDS011;5200;43.236;27.986;2023-09-08T03:08:42;6.25;;;2.70;;
10309;SDS011;5200;43.236;27.986;2023-09-08T03:11:09;4.25;;;2.22;;
10309;SDS011;5200;43.236;27.986;2023-09-08T03:13:36;2.95;;;2.50;;
10309;SDS011;5200;43.236;27.986;2023-09-08T03:16:03;2.95;;;2.35;;
10309;SDS011;5200;43.236;27.986;2023-09-08T03:18:31;4.90;;;2.25;;
10309;SDS011;5200;43.236;27.986;2023-09-08T03:20:58;2.53;;;2.33;;
10309;SDS011;5200;43.236;27.986;2023-09-08T03:23:28;2.70;;;2.28;;
10309;SDS011;5200;43.236;27.986;2023-09-08T03:25:56;3.35;;;2.30;;
10309;SDS011;5200;43.236;27.986;2023-09-08T03:28:23;2.83;;;2.50;;
10309;SDS011;5200;43.236;27.986;2023-09-08T03:30:50;2.88;;;2.63;;
10309;SDS011;5200;43.236;27.986;2023-09-08T03:33:17;2.75;;;2.50;;
10309;SDS011;5200;43.236;27.986;2023-09-08T03:35:44;5.60;;;2.65;;
10309;SDS011;5200;43.236;27.986;2023-09-08T03:38:10;2.90;;;2.40;;
10309;SDS011;5200;43.236;27.986;2023-09-08T03:40:37;2.72;;;2.30;;
10309;SDS011;5200;43.236;27.986;2023-09-08T03:43:05;3.38;;;2.72;;
10309;SDS011;5200;43.236;27.986;2023-09-08T03:45:32;5.90;;;2.60;;
10309;SDS011;5200;43.236;27.986;2023-09-08T03:47:59;4.03;;;2.35;;
10309;SDS011;5200;43.236;27.986;2023-09-08T03:50:26;4.82;;;2.67;;
10309;SDS011;5200;43.236;27.986;2023-09-08T03:52:53;8.55;;;3.53;;
10309;SDS011;5200;43.236;27.986;2023-09-08T03:55:20;4.18;;;2.85;;
10309;SDS011;5200;43.236;27.986;2023-09-08T03:57:47;3.70;;;2.65;;
10309;SDS011;5200;43.236;27.986;2023-09-08T04:00:15;4.50;;;2.83;;
10309;SDS011;5200;43.236;27.986;2023-09-08T04:02:47;4.05;;;2.50;;
10309;SDS011;5200;43.236;27.986;2023-09-08T04:05:15;2.88;;;2.10;;
10309;SDS011;5200;43.236;27.986;2023-09-08T04:07:46;4.47;;;2.83;;
10309;SDS011;5200;43.236;27.986;2023-09-08T04:10:13;4.05;;;2.63;;
10309;SDS011;5200;43.236;27.986;2023-09-08T04:12:39;5.25;;;2.80;;
10309;SDS011;5200;43.236;27.986;2023-09-08T04:15:07;2.72;;;2.47;;
10309;SDS011;5200;43.236;27.986;2023-09-08T04:17:36;3.20;;;2.50;;
10309;SDS011;5200;43.236;27.986;2023-09-08T04:20:03;4.38;;;2.38;;
10309;SDS011;5200;43.236;27.986;2023-09-08T04:22:31;3.88;;;2.85;;
10309;SDS011;5200;43.236;27.986;2023-09-08T04:24:58;2.50;;;2.30;;
10309;SDS011;5200;43.236;27.986;2023-09-08T04:27:25;2.65;;;2.38;;
10309;SDS011;5200;43.236;27.986;2023-09-08T04:29:52;3.97;;;3.08;;
10309;SDS011;5200;43.236;27.986;2023-09-08T04:32:19;3.20;;;2.90;;
10309;SDS011;5200;43.236;27.986;2023-09-08T04:34:47;5.20;;;3.03;;
10309;SDS011;5200;43.236;27.986;2023-09-08T04:37:15;5.45;;;2.92;;
10309;SDS011;5200;43.236;27.986;2023-09-08T04:39:42;5.18;;;2.95;;
10309;SDS011;5200;43.236;27.986;2023-09-08T04:42:09;4.70;;;2.50;;
10309;SDS011;5200;43.236;27.986;2023-09-08T04:44:35;6.13;;;2.95;;
10309;SDS011;5200;43.236;27.986;2023-09-08T04:47:03;8.57;;;2.58;;
10309;SDS011;5200;43.236;27.986;2023-09-08T04:49:30;4.05;;;2.70;;
10309;SDS011;5200;43.236;27.986;2023-09-08T04:51:58;6.07;;;2.83;;
10309;SDS011;5200;43.236;27.986;2023-09-08T04:54:25;4.38;;;2.30;;
10309;SDS011;5200;43.236;27.986;2023-09-08T04:56:52;8.23;;;2.88;;
10309;SDS011;5200;43.236;27.986;2023-09-08T04:59:20;4.28;;;3.20;;
10309;SDS011;5200;43.236;27.986;2023-09-08T05:01:48;3.67;;;2.75;;
10309;SDS011;5200;43.236;27.986;2023-09-08T05:04:15;4.32;;;3.20;;
10309;SDS011;5200;43.236;27.986;2023-09-08T05:06:42;7.68;;;3.63;;
10309;SDS011;5200;43.236;27.986;2023-09-08T05:09:11;8.45;;;4.18;;
10309;SDS011;5200;43.236;27.986;2023-09-08T05:11:37;4.22;;;3.33;;
10309;SDS011;5200;43.236;27.986;2023-09-08T05:14:04;5.55;;;3.50;;
10309;SDS011;5200;43.236;27.986;2023-09-08T05:16:31;5.47;;;3.58;;
10309;SDS011;5200;43.236;27.986;2023-09-08T05:19:04;4.97;;;3.08;;
10309;SDS011;5200;43.236;27.986;2023-09-08T05:21:32;6.00;;;3.17;;
10309;SDS011;5200;43.236;27.986;2023-09-08T05:24:00;8.20;;;3.72;;
10309;SDS011;5200;43.236;27.986;2023-09-08T05:26:28;8.15;;;4.10;;
10309;SDS011;5200;43.236;27.986;2023-09-08T05:28:56;4.05;;;3.08;;
10309;SDS011;5200;43.236;27.986;2023-09-08T05:31:23;10.10;;;3.30;;
10309;SDS011;5200;43.236;27.986;2023-09-08T05:33:51;6.43;;;3.30;;
10309;SDS011;5200;43.236;27.986;2023-09-08T05:36:18;5.55;;;3.50;;
10309;SDS011;5200;43.236;27.986;2023-09-08T05:38:46;5.32;;;3.45;;
10309;SDS011;5200;43.236;27.986;2023-09-08T05:41:13;4.63;;;3.60;;
10309;SDS011;5200;43.236;27.986;2023-09-08T05:43:41;7.22;;;3.50;;
10309;SDS011;5200;43.236;27.986;2023-09-08T05:46:08;8.77;;;4.00;;
10309;SDS011;5200;43.236;27.986;2023-09-08T05:48:34;5.43;;;3.75;;
10309;SDS011;5200;43.236;27.986;2023-09-08T05:51:01;8.13;;;3.53;;
10309;SDS011;5200;43.236;27.986;2023-09-08T05:53:28;4.50;;;3.78;;
10309;SDS011;5200;43.236;27.986;2023-09-08T05:55:55;5.68;;;3.55;;
10309;SDS011;5200;43.236;27.986;2023-09-08T05:58:22;9.07;;;3.83;;
10309;SDS011;5200;43.236;27.986;2023-09-08T06:00:53;7.65;;;3.58;;
10309;SDS011;5200;43.236;27.986;2023-09-08T06:03:20;6.40;;;3.50;;
10309;SDS011;5200;43.236;27.986;2023-09-08T06:05:47;8.55;;;3.47;;
10309;SDS011;5200;43.236;27.986;2023-09-08T06:08:14;10.93;;;4.03;;
10309;SDS011;5200;43.236;27.986;2023-09-08T06:10:41;11.27;;;3.47;;
10309;SDS011;5200;43.236;27.986;2023-09-08T06:13:08;7.60;;;3.55;;
10309;SDS011;5200;43.236;27.986;2023-09-08T06:15:35;9.30;;;4.10;;
10309;SDS011;5200;43.236;27.986;2023-09-08T06:18:04;6.78;;;3.38;;
10309;SDS011;5200;43.236;27.986;2023-09-08T06:20:46;9.27;;;3.85;;
10309;SDS011;5200;43.236;27.986;2023-09-08T06:23:19;9.07;;;3.80;;
10309;SDS011;5200;43.236;27.986;2023-09-08T06:25:46;5.00;;;3.25;;
10309;SDS011;5200;43.236;27.986;2023-09-08T06:28:13;10.70;;;3.97;;
10309;SDS011;5200;43.236;27.986;2023-09-08T06:30:40;5.05;;;3.45;;
10309;SDS011;5200;43.236;27.986;2023-09-08T06:33:09;5.70;;;3.65;;
10309;SDS011;5200;43.236;27.986;2023-09-08T06:35:36;8.82;;;4.22;;
10309;SDS011;5200;43.236;27.986;2023-09-08T06:38:02;4.78;;;3.40;;
10309;SDS011;5200;43.236;27.986;2023-09-08T06:40:30;8.50;;;3.55;;
10309;SDS011;5200;43.236;27.986;2023-09-08T06:42:56;6.57;;;3.97;;
10309;SDS011;5200;43.236;27.986;2023-09-08T06:45:23;7.82;;;4.35;;
10309;SDS011;5200;43.236;27.986;2023-09-08T06:47:51;5.93;;;3.40;;
10309;SDS011;5200;43.236;27.986;2023-09-08T06:50:21;11.82;;;3.72;;
10309;SDS011;5200;43.236;27.986;2023-09-08T06:52:48;6.03;;;3.50;;
10309;SDS011;5200;43.236;27.986;2023-09-08T06:55:15;7.97;;;3.70;;
10309;SDS011;5200;43.236;27.986;2023-09-08T06:57:42;4.95;;;3.50;;
10309;SDS011;5200;43.236;27.986;2023-09-08T07:00:09;5.70;;;3.92;;
10309;SDS011;5200;43.236;27.986;2023-09-08T07:02:37;4.53;;;3.42;;
10309;SDS011;5200;43.236;27.986;2023-09-08T07:05:04;4.28;;;3.33;;
10309;SDS011;5200;43.236;27.986;2023-09-08T07:07:34;6.13;;;3.55;;
10309;SDS011;5200;43.236;27.986;2023-09-08T07:10:02;4.43;;;3.25;;
10309;SDS011;5200;43.236;27.986;2023-09-08T07:12:29;3.88;;;3.45;;
10309;SDS011;5200;43.236;27.986;2023-09-08T07:14:56;9.68;;;3.45;;
10309;SDS011;5200;43.236;27.986;2023-09-08T07:17:23;7.05;;;4.10;;
10309;SDS011;5200;43.236;27.986;2023-09-08T07:19:50;6.57;;;4.03;;
10309;SDS011;5200;43.236;27.986;2023-09-08T07:22:17;4.75;;;3.65;;
10309;SDS011;5200;43.236;27.986;2023-09-08T07:24:47;7.32;;;3.47;;
10309;SDS011;5200;43.236;27.986;2023-09-08T07:27:13;8.18;;;3.60;;
10309;SDS011;5200;43.236;27.986;2023-09-08T07:29:40;7.45;;;3.95;;
10309;SDS011;5200;43.236;27.986;2023-09-08T07:34:38;5.78;;;4.18;;
10309;SDS011;5200;43.236;27.986;2023-09-08T07:37:05;6.30;;;3.92;;
10309;SDS011;5200;43.236;27.986;2023-09-08T07:39:32;6.82;;;4.20;;
10309;SDS011;5200;43.236;27.986;2023-09-08T07:42:02;9.98;;;4.57;;
10309;SDS011;5200;43.236;27.986;2023-09-08T07:44:29;5.97;;;4.13;;
10309;SDS011;5200;43.236;27.986;2023-09-08T07:46:56;9.05;;;3.80;;
10309;SDS011;5200;43.236;27.986;2023-09-08T07:49:23;6.80;;;3.95;;
10309;SDS011;5200;43.236;27.986;2023-09-08T07:51:50;8.90;;;4.30;;
10309;SDS011;5200;43.236;27.986;2023-09-08T07:54:16;7.68;;;3.80;;
10309;SDS011;5200;43.236;27.986;2023-09-08T07:56:43;8.95;;;4.22;;
10309;SDS011;5200;43.236;27.986;2023-09-08T07:59:12;6.68;;;4.38;;
10309;SDS011;5200;43.236;27.986;2023-09-08T08:01:38;7.70;;;4.68;;
10309;SDS011;5200;43.236;27.986;2023-09-08T08:04:05;8.88;;;4.50;;
10309;SDS011;5200;43.236;27.986;2023-09-08T08:06:32;9.80;;;4.70;;
10309;SDS011;5200;43.236;27.986;2023-09-08T08:09:14;7.65;;;4.10;;
10309;SDS011;5200;43.236;27.986;2023-09-08T08:11:41;6.45;;;4.07;;
10309;SDS011;5200;43.236;27.986;2023-09-08T08:14:08;7.22;;;4.35;;
10309;SDS011;5200;43.236;27.986;2023-09-08T08:16:35;9.23;;;4.60;;
10309;SDS011;5200;43.236;27.986;2023-09-08T08:19:02;18.50;;;4.43;;
10309;SDS011;5200;43.236;27.986;2023-09-08T08:21:28;8.20;;;4.00;;
10309;SDS011;5200;43.236;27.986;2023-09-08T08:23:55;6.22;;;4.40;;
10309;SDS011;5200;43.236;27.986;2023-09-08T08:26:24;8.27;;;4.60;;
10309;SDS011;5200;43.236;27.986;2023-09-08T08:28:55;9.55;;;3.95;;
10309;SDS011;5200;43.236;27.986;2023-09-08T08:31:21;10.75;;;4.10;;
10309;SDS011;5200;43.236;27.986;2023-09-08T08:33:49;10.77;;;4.32;;
10309;SDS011;5200;43.236;27.986;2023-09-08T08:36:16;5.80;;;3.95;;
10309;SDS011;5200;43.236;27.986;2023-09-08T08:38:43;7.72;;;4.00;;
10309;SDS011;5200;43.236;27.986;2023-09-08T08:41:10;12.07;;;4.30;;
10309;SDS011;5200;43.236;27.986;2023-09-08T08:43:38;8.18;;;4.13;;
10309;SDS011;5200;43.236;27.986;2023-09-08T08:46:06;13.20;;;5.00;;
10309;SDS011;5200;43.236;27.986;2023-09-08T08:48:34;6.40;;;3.60;;
10309;SDS011;5200;43.236;27.986;2023-09-08T08:51:03;10.00;;;4.35;;
10309;SDS011;5200;43.236;27.986;2023-09-08T08:53:31;7.15;;;4.00;;
10309;SDS011;5200;43.236;27.986;2023-09-08T08:55:58;7.50;;;3.88;;
10309;SDS011;5200;43.236;27.986;2023-09-08T08:58:26;9.45;;;4.57;;
10309;SDS011;5200;43.236;27.986;2023-09-08T09:00:55;8.35;;;3.45;;
10309;SDS011;5200;43.236;27.986;2023-09-08T09:03:26;8.30;;;4.10;;
10309;SDS011;5200;43.236;27.986;2023-09-08T09:05:53;10.23;;;3.83;;
10309;SDS011;5200;43.236;27.986;2023-09-08T09:08:20;6.93;;;3.17;;
10309;SDS011;5200;43.236;27.986;2023-09-08T09:10:50;4.35;;;3.50;;
10309;SDS011;5200;43.236;27.986;2023-09-08T09:13:17;8.20;;;3.00;;
10309;SDS011;5200;43.236;27.986;2023-09-08T09:15:44;6.20;;;3.30;;
10309;SDS011;5200;43.236;27.986;2023-09-08T09:18:13;8.70;;;3.58;;
10309;SDS011;5200;43.236;27.986;2023-09-08T09:20:40;6.47;;;3.40;;
10309;SDS011;5200;43.236;27.986;2023-09-08T09:23:08;8.95;;;3.28;;
10309;SDS011;5200;43.236;27.986;2023-09-08T09:25:36;6.75;;;4.05;;
10309;SDS011;5200;43.236;27.986;2023-09-08T09:28:03;7.38;;;3.00;;
10309;SDS011;5200;43.236;27.986;2023-09-08T09:30:45;6.40;;;3.20;;
10309;SDS011;5200;43.236;27.986;2023-09-08T09:33:15;4.00;;;3.15;;
10309;SDS011;5200;43.236;27.986;2023-09-08T09:35:43;6.38;;;2.75;;
10309;SDS011;5200;43.236;27.986;2023-09-08T09:38:12;7.32;;;3.17;;
10309;SDS011;5200;43.236;27.986;2023-09-08T09:40:39;6.45;;;3.17;;
10309;SDS011;5200;43.236;27.986;2023-09-08T09:43:06;7.85;;;3.30;;
10309;SDS011;5200;43.236;27.986;2023-09-08T09:45:34;6.95;;;2.78;;
10309;SDS011;5200;43.236;27.986;2023-09-08T09:48:02;6.20;;;2.58;;
10309;SDS011;5200;43.236;27.986;2023-09-08T09:50:31;7.13;;;3.53;;
10309;SDS011;5200;43.236;27.986;2023-09-08T09:52:59;9.18;;;3.20;;
10309;SDS011;5200;43.236;27.986;2023-09-08T09:55:27;7.07;;;3.45;;
10309;SDS011;5200;43.236;27.986;2023-09-08T09:57:55;6.65;;;2.83;;
10309;SDS011;5200;43.236;27.986;2023-09-08T10:00:25;7.53;;;2.90;;
10309;SDS011;5200;43.236;27.986;2023-09-08T10:02:53;7.88;;;3.00;;
10309;SDS011;5200;43.236;27.986;2023-09-08T10:05:21;4.30;;;2.95;;
10309;SDS011;5200;43.236;27.986;2023-09-08T10:07:51;6.22;;;3.15;;
10309;SDS011;5200;43.236;27.986;2023-09-08T10:10:19;4.80;;;2.78;;
10309;SDS011;5200;43.236;27.986;2023-09-08T10:12:49;7.55;;;3.50;;
10309;SDS011;5200;43.236;27.986;2023-09-08T10:15:19;20.77;;;3.80;;
10309;SDS011;5200;43.236;27.986;2023-09-08T10:17:51;12.55;;;3.40;;
10309;SDS011;5200;43.236;27.986;2023-09-08T10:20:19;6.43;;;2.75;;
10309;SDS011;5200;43.236;27.986;2023-09-08T10:22:50;8.50;;;2.47;;
10309;SDS011;5200;43.236;27.986;2023-09-08T10:25:24;6.07;;;2.88;;
10309;SDS011;5200;43.236;27.986;2023-09-08T10:27:54;7.32;;;3.33;;
10309;SDS011;5200;43.236;27.986;2023-09-08T10:30:22;6.78;;;2.97;;
10309;SDS011;5200;43.236;27.986;2023-09-08T10:32:49;8.10;;;3.13;;
10309;SDS011;5200;43.236;27.986;2023-09-08T10:35:17;6.95;;;3.45;;
10309;SDS011;5200;43.236;27.986;2023-09-08T10:37:44;8.10;;;3.30;;
10309;SDS011;5200;43.236;27.986;2023-09-08T10:40:22;6.68;;;2.90;;
10309;SDS011;5200;43.236;27.986;2023-09-08T10:43:06;7.18;;;3.05;;
10309;SDS011;5200;43.236;27.986;2023-09-08T10:45:33;7.50;;;3.10;;
10309;SDS011;5200;43.236;27.986;2023-09-08T10:48:01;6.50;;;2.83;;
10309;SDS011;5200;43.236;27.986;2023-09-08T10:50:32;7.85;;;3.45;;
10309;SDS011;5200;43.236;27.986;2023-09-08T10:53:15;8.13;;;3.05;;
10309;SDS011;5200;43.236;27.986;2023-09-08T10:55:45;11.45;;;3.05;;
10309;SDS011;5200;43.236;27.986;2023-09-08T10:58:17;10.88;;;2.70;;
10309;SDS011;5200;43.236;27.986;2023-09-08T11:00:45;14.90;;;3.50;;
10309;SDS011;5200;43.236;27.986;2023-09-08T11:03:14;7.15;;;2.80;;
10309;SDS011;5200;43.236;27.986;2023-09-08T11:05:52;3.90;;;2.85;;
10309;SDS011;5200;43.236;27.986;2023-09-08T11:08:19;7.18;;;2.90;;
10309;SDS011;5200;43.236;27.986;2023-09-08T11:10:47;5.70;;;2.80;;
10309;SDS011;5200;43.236;27.986;2023-09-08T11:13:16;3.83;;;2.40;;
10309;SDS011;5200;43.236;27.986;2023-09-08T11:15:43;8.02;;;3.22;;
10309;SDS011;5200;43.236;27.986;2023-09-08T11:18:10;6.43;;;3.00;;
10309;SDS011;5200;43.236;27.986;2023-09-08T11:20:37;9.90;;;2.70;;
10309;SDS011;5200;43.236;27.986;2023-09-08T11:23:03;5.88;;;2.97;;
10309;SDS011;5200;43.236;27.986;2023-09-08T11:25:31;6.65;;;2.85;;
10309;SDS011;5200;43.236;27.986;2023-09-08T11:28:01;5.85;;;2.88;;
10309;SDS011;5200;43.236;27.986;2023-09-08T11:30:28;7.82;;;3.00;;
10309;SDS011;5200;43.236;27.986;2023-09-08T11:32:55;8.18;;;3.10;;
10309;SDS011;5200;43.236;27.986;2023-09-08T11:35:24;7.05;;;2.72;;
10309;SDS011;5200;43.236;27.986;2023-09-08T11:37:53;14.48;;;3.47;;
10309;SDS011;5200;43.236;27.986;2023-09-08T11:40:25;5.45;;;2.80;;
10309;SDS011;5200;43.236;27.986;2023-09-08T11:42:53;6.40;;;2.88;;
10309;SDS011;5200;43.236;27.986;2023-09-08T11:45:21;4.30;;;2.53;;
10309;SDS011;5200;43.236;27.986;2023-09-08T11:47:48;5.38;;;2.75;;
10309;SDS011;5200;43.236;27.986;2023-09-08T11:50:16;9.55;;;2.45;;
10309;SDS011;5200;43.236;27.986;2023-09-08T11:52:45;4.70;;;2.65;;
10309;SDS011;5200;43.236;27.986;2023-09-08T11:55:12;5.28;;;2.70;;
10309;SDS011;5200;43.236;27.986;2023-09-08T11:57:40;7.70;;;2.90;;
10309;SDS011;5200;43.236;27.986;2023-09-08T12:00:08;6.13;;;2.97;;
10309;SDS011;5200;43.236;27.986;2023-09-08T12:02:44;4.78;;;2.38;;
10309;SDS011;5200;43.236;27.986;2023-09-08T12:05:11;3.90;;;1.88;;
10309;SDS011;5200;43.236;27.986;2023-09-08T12:07:39;6.78;;;2.70;;
10309;SDS011;5200;43.236;27.986;2023-09-08T12:10:07;6.75;;;2.58;;
10309;SDS011;5200;43.236;27.986;2023-09-08T12:12:41;9.45;;;2.95;;
10309;SDS011;5200;43.236;27.986;2023-09-08T12:15:08;13.95;;;3.05;;
10309;SDS011;5200;43.236;27.986;2023-09-08T12:17:47;9.30;;;2.90;;
10309;SDS011;5200;43.236;27.986;2023-09-08T12:20:15;7.05;;;2.80;;
10309;SDS011;5200;43.236;27.986;2023-09-08T12:22:49;6.03;;;2.80;;
10309;SDS011;5200;43.236;27.986;2023-09-08T12:25:16;7.47;;;3.28;;
10309;SDS011;5200;43.236;27.986;2023-09-08T12:27:43;5.00;;;2.83;;
10309;SDS011;5200;43.236;27.986;2023-09-08T12:30:16;7.93;;;2.67;;
10309;SDS011;5200;43.236;27.986;2023-09-08T12:32:44;6.35;;;2.78;;
10309;SDS011;5200;43.236;27.986;2023-09-08T12:35:19;7.05;;;2.80;;
10309;SDS011;5200;43.236;27.986;2023-09-08T12:37:47;8.40;;;3.08;;
10309;SDS011;5200;43.236;27.986;2023-09-08T12:40:18;8.27;;;2.70;;
10309;SDS011;5200;43.236;27.986;2023-09-08T12:42:45;6.07;;;2.60;;
10309;SDS011;5200;43.236;27.986;2023-09-08T12:45:12;6.72;;;2.70;;
10309;SDS011;5200;43.236;27.986;2023-09-08T12:47:39;5.00;;;3.08;;
10309;SDS011;5200;43.236;27.986;2023-09-08T12:50:07;5.68;;;2.70;;
10309;SDS011;5200;43.236;27.986;2023-09-08T12:52:35;9.23;;;2.30;;
10309;SDS011;5200;43.236;27.986;2023-09-08T12:55:01;7.63;;;3.17;;
10309;SDS011;5200;43.236;27.986;2023-09-08T12:57:28;4.97;;;2.17;;
10309;SDS011;5200;43.236;27.986;2023-09-08T12:59:56;5.28;;;2.80;;
10309;SDS011;5200;43.236;27.986;2023-09-08T13:02:22;6.90;;;2.83;;
10309;SDS011;5200;43.236;27.986;2023-09-08T13:04:49;3.45;;;2.50;;
10309;SDS011;5200;43.236;27.986;2023-09-08T13:07:18;4.35;;;2.42;;
10309;SDS011;5200;43.236;27.986;2023-09-08T13:09:45;6.32;;;2.65;;
10309;SDS011;5200;43.236;27.986;2023-09-08T13:12:12;7.25;;;2.70;;
10309;SDS011;5200;43.236;27.986;2023-09-08T13:14:39;6.93;;;2.60;;
10309;SDS011;5200;43.236;27.986;2023-09-08T13:17:05;7.88;;;2.78;;
10309;SDS011;5200;43.236;27.986;2023-09-08T13:19:32;5.68;;;2.88;;
10309;SDS011;5200;43.236;27.986;2023-09-08T13:21:59;9.63;;;3.13;;
10309;SDS011;5200;43.236;27.986;2023-09-08T13:24:27;8.20;;;2.92;;
10309;SDS011;5200;43.236;27.986;2023-09-08T13:26:54;7.80;;;2.50;;
10309;SDS011;5200;43.236;27.986;2023-09-08T13:29:21;4.00;;;2.50;;
10309;SDS011;5200;43.236;27.986;2023-09-08T13:31:48;6.57;;;2.10;;
10309;SDS011;5200;43.236;27.986;2023-09-08T13:34:14;6.18;;;2.50;;
10309;SDS011;5200;43.236;27.986;2023-09-08T13:36:41;7.13;;;2.42;;
10309;SDS011;5200;43.236;27.986;2023-09-08T13:39:08;4.53;;;1.98;;
10309;SDS011;5200;43.236;27.986;2023-09-08T13:41:46;4.10;;;2.03;;
10309;SDS011;5200;43.236;27.986;2023-09-08T13:44:15;7.25;;;2.45;;
10309;SDS011;5200;43.236;27.986;2023-09-08T13:46:42;5.78;;;2.28;;
10309;SDS011;5200;43.236;27.986;2023-09-08T13:49:09;3.75;;;2.17;;
10309;SDS011;5200;43.236;27.986;2023-09-08T13:51:36;9.35;;;2.55;;
10309;SDS011;5200;43.236;27.986;2023-09-08T13:54:03;3.55;;;2.10;;
10309;SDS011;5200;43.236;27.986;2023-09-08T13:56:30;2.65;;;2.17;;
10309;SDS011;5200;43.236;27.986;2023-09-08T13:58:58;4.85;;;2.60;;
10309;SDS011;5200;43.236;27.986;2023-09-08T14:01:25;10.13;;;2.78;;
10309;SDS011;5200;43.236;27.986;2023-09-08T14:03:54;6.68;;;3.00;;
10309;SDS011;5200;43.236;27.986;2023-09-08T14:06:21;5.80;;;2.45;;
10309;SDS011;5200;43.236;27.986;2023-09-08T14:08:48;4.97;;;2.60;;
10309;SDS011;5200;43.236;27.986;2023-09-08T14:11:15;5.20;;;3.00;;
10309;SDS011;5200;43.236;27.986;2023-09-08T14:13:42;9.75;;;2.85;;
10309;SDS011;5200;43.236;27.986;2023-09-08T14:16:10;5.78;;;2.63;;
10309;SDS011;5200;43.236;27.986;2023-09-08T14:18:38;7.97;;;2.50;;
10309;SDS011;5200;43.236;27.986;2023-09-08T14:21:04;6.82;;;2.55;;
10309;SDS011;5200;43.236;27.986;2023-09-08T14:23:31;5.43;;;3.35;;
10309;SDS011;5200;43.236;27.986;2023-09-08T14:25:59;6.00;;;2.60;;
10309;SDS011;5200;43.236;27.986;2023-09-08T14:28:26;3.22;;;2.22;;
10309;SDS011;5200;43.236;27.986;2023-09-08T14:30:53;3.20;;;2.45;;
10309;SDS011;5200;43.236;27.986;2023-09-08T14:33:21;7.22;;;2.35;;
10309;SDS011;5200;43.236;27.986;2023-09-08T14:35:48;5.38;;;2.45;;
10309;SDS011;5200;43.236;27.986;2023-09-08T14:38:16;5.97;;;2.50;;
10309;SDS011;5200;43.236;27.986;2023-09-08T14:40:43;4.93;;;2.97;;
10309;SDS011;5200;43.236;27.986;2023-09-08T14:43:11;4.40;;;2.38;;
10309;SDS011;5200;43.236;27.986;2023-09-08T14:45:38;5.95;;;2.47;;
10309;SDS011;5200;43.236;27.986;2023-09-08T14:48:05;4.65;;;2.70;;
10309;SDS011;5200;43.236;27.986;2023-09-08T14:50:34;4.95;;;2.80;;
10309;SDS011;5200;43.236;27.986;2023-09-08T14:53:01;3.72;;;2.40;;
10309;SDS011;5200;43.236;27.986;2023-09-08T14:55:27;5.55;;;3.30;;